sensor_id;sensor_type;location;lat;lon;timestamp;P1;durP1;ratioP1;P2;durP2;ratioP2
19525;SDS011;9907;42.676;26.348;2022-09-12T00:01:24;1.00;;;0.90;;
19525;SDS011;9907;42.676;26.348;2022-09-12T00:03:51;1.77;;;1.13;;
19525;SDS011;9907;42.676;26.348;2022-09-12T00:06:22;2.70;;;1.10;;
19525;SDS011;9907;42.676;26.348;2022-09-12T00:08:50;4.03;;;1.00;;
19525;SDS011;9907;42.676;26.348;2022-09-12T00:11:19;1.30;;;1.03;;
19525;SDS011;9907;42.676;26.348;2022-09-12T00:13:45;4.00;;;1.20;;
19525;SDS011;9907;42.676;26.348;2022-09-12T00:16:14;1.10;;;1.00;;
19525;SDS011;9907;42.676;26.348;2022-09-12T00:18:43;2.83;;;0.80;;
19525;SDS011;9907;42.676;26.348;2022-09-12T00:21:10;1.37;;;1.10;;
19525;SDS011;9907;42.676;26.348;2022-09-12T00:23:36;1.23;;;0.93;;
19525;SDS011;9907;42.676;26.348;2022-09-12T00:26:03;2.37;;;1.27;;
19525;SDS011;9907;42.676;26.348;2022-09-12T00:28:30;1.77;;;0.67;;
19525;SDS011;9907;42.676;26.348;2022-09-12T00:30:57;0.90;;;0.40;;
19525;SDS011;9907;42.676;26.348;2022-09-12T00:33:22;0.40;;;0.40;;
19525;SDS011;9907;42.676;26.348;2022-09-12T00:35:49;0.70;;;0.70;;
19525;SDS011;9907;42.676;26.348;2022-09-12T00:38:17;0.63;;;0.53;;
19525;SDS011;9907;42.676;26.348;2022-09-12T00:40:43;1.87;;;0.77;;
19525;SDS011;9907;42.676;26.348;2022-09-12T00:43:13;1.30;;;0.77;;
19525;SDS011;9907;42.676;26.348;2022-09-12T00:45:53;1.80;;;0.50;;
19525;SDS011;9907;42.676;26.348;2022-09-12T00:48:21;1.93;;;0.50;;
19525;SDS011;9907;42.676;26.348;2022-09-12T00:50:56;3.30;;;0.70;;
19525;SDS011;9907;42.676;26.348;2022-09-12T00:53:22;0.60;;;0.60;;
19525;SDS011;9907;42.676;26.348;2022-09-12T00:55:48;1.17;;;0.80;;
19525;SDS011;9907;42.676;26.348;2022-09-12T00:58:29;1.33;;;0.70;;
19525;SDS011;9907;42.676;26.348;2022-09-12T01:01:00;0.93;;;0.70;;
19525;SDS011;9907;42.676;26.348;2022-09-12T01:03:25;1.80;;;0.80;;
19525;SDS011;9907;42.676;26.348;2022-09-12T01:08:35;5.37;;;1.47;;
19525;SDS011;9907;42.676;26.348;2022-09-12T01:11:03;5.27;;;1.43;;
19525;SDS011;9907;42.676;26.348;2022-09-12T01:13:30;6.07;;;1.70;;
19525;SDS011;9907;42.676;26.348;2022-09-12T01:15:58;4.27;;;1.23;;
19525;SDS011;9907;42.676;26.348;2022-09-12T01:21:10;5.70;;;1.30;;
19525;SDS011;9907;42.676;26.348;2022-09-12T01:23:49;3.20;;;1.07;;
19525;SDS011;9907;42.676;26.348;2022-09-12T01:35:18;2.17;;;1.10;;
19525;SDS011;9907;42.676;26.348;2022-09-12T01:43:03;3.27;;;0.80;;
19525;SDS011;9907;42.676;26.348;2022-09-12T01:45:52;1.30;;;0.90;;
19525;SDS011;9907;42.676;26.348;2022-09-12T01:51:40;1.23;;;0.80;;
19525;SDS011;9907;42.676;26.348;2022-09-12T01:54:19;0.83;;;0.80;;
19525;SDS011;9907;42.676;26.348;2022-09-12T01:56:50;0.83;;;0.70;;
19525;SDS011;9907;42.676;26.348;2022-09-12T01:59:22;0.70;;;0.63;;
19525;SDS011;9907;42.676;26.348;2022-09-12T02:02:01;0.60;;;0.53;;
19525;SDS011;9907;42.676;26.348;2022-09-12T02:05:21;0.50;;;0.50;;
19525;SDS011;9907;42.676;26.348;2022-09-12T02:10:04;0.70;;;0.60;;
19525;SDS011;9907;42.676;26.348;2022-09-12T02:12:37;1.13;;;0.73;;
19525;SDS011;9907;42.676;26.348;2022-09-12T02:15:08;1.50;;;0.60;;
19525;SDS011;9907;42.676;26.348;2022-09-12T02:17:37;0.50;;;0.50;;
19525;SDS011;9907;42.676;26.348;2022-09-12T02:20:11;0.97;;;0.97;;
19525;SDS011;9907;42.676;26.348;2022-09-12T02:22:53;1.53;;;0.90;;
19525;SDS011;9907;42.676;26.348;2022-09-12T02:25:21;2.03;;;0.60;;
19525;SDS011;9907;42.676;26.348;2022-09-12T02:27:50;0.60;;;0.60;;
19525;SDS011;9907;42.676;26.348;2022-09-12T02:30:19;0.60;;;0.60;;
19525;SDS011;9907;42.676;26.348;2022-09-12T02:35:27;0.93;;;0.80;;
19525;SDS011;9907;42.676;26.348;2022-09-12T02:40:36;2.40;;;0.80;;
19525;SDS011;9907;42.676;26.348;2022-09-12T02:43:03;0.77;;;0.77;;
19525;SDS011;9907;42.676;26.348;2022-09-12T02:45:29;1.50;;;0.70;;
19525;SDS011;9907;42.676;26.348;2022-09-12T02:48:08;2.13;;;0.90;;
19525;SDS011;9907;42.676;26.348;2022-09-12T02:50:34;0.67;;;0.67;;
19525;SDS011;9907;42.676;26.348;2022-09-12T02:53:00;0.53;;;0.53;;
19525;SDS011;9907;42.676;26.348;2022-09-12T02:55:32;0.70;;;0.70;;
19525;SDS011;9907;42.676;26.348;2022-09-12T02:58:00;1.37;;;0.80;;
19525;SDS011;9907;42.676;26.348;2022-09-12T03:00:29;2.13;;;0.80;;
19525;SDS011;9907;42.676;26.348;2022-09-12T03:21:51;0.90;;;0.90;;
19525;SDS011;9907;42.676;26.348;2022-09-12T03:24:28;0.93;;;0.93;;
19525;SDS011;9907;42.676;26.348;2022-09-12T03:29:44;4.67;;;1.50;;
19525;SDS011;9907;42.676;26.348;2022-09-12T03:32:12;1.57;;;1.47;;
19525;SDS011;9907;42.676;26.348;2022-09-12T03:34:37;1.60;;;1.50;;
19525;SDS011;9907;42.676;26.348;2022-09-12T03:37:03;1.90;;;1.53;;
19525;SDS011;9907;42.676;26.348;2022-09-12T03:39:29;2.57;;;2.33;;
19525;SDS011;9907;42.676;26.348;2022-09-12T03:41:55;1.50;;;1.40;;
19525;SDS011;9907;42.676;26.348;2022-09-12T03:44:21;2.43;;;1.90;;
19525;SDS011;9907;42.676;26.348;2022-09-12T03:46:47;1.97;;;1.87;;
19525;SDS011;9907;42.676;26.348;2022-09-12T03:49:13;1.73;;;1.50;;
19525;SDS011;9907;42.676;26.348;2022-09-12T03:51:38;1.97;;;1.87;;
19525;SDS011;9907;42.676;26.348;2022-09-12T03:54:04;1.70;;;1.60;;
19525;SDS011;9907;42.676;26.348;2022-09-12T03:56:30;1.60;;;1.50;;
19525;SDS011;9907;42.676;26.348;2022-09-12T03:58:56;3.80;;;1.73;;
19525;SDS011;9907;42.676;26.348;2022-09-12T04:01:22;4.27;;;1.70;;
19525;SDS011;9907;42.676;26.348;2022-09-12T04:03:48;3.63;;;1.43;;
19525;SDS011;9907;42.676;26.348;2022-09-12T04:06:16;1.93;;;1.30;;
19525;SDS011;9907;42.676;26.348;2022-09-12T04:08:43;1.17;;;0.97;;
19525;SDS011;9907;42.676;26.348;2022-09-12T04:11:13;1.47;;;1.37;;
19525;SDS011;9907;42.676;26.348;2022-09-12T04:13:40;2.20;;;1.10;;
19525;SDS011;9907;42.676;26.348;2022-09-12T04:16:07;1.33;;;1.20;;
19525;SDS011;9907;42.676;26.348;2022-09-12T04:18:34;4.77;;;1.50;;
19525;SDS011;9907;42.676;26.348;2022-09-12T04:21:18;1.80;;;1.17;;
19525;SDS011;9907;42.676;26.348;2022-09-12T04:23:48;1.30;;;1.10;;
19525;SDS011;9907;42.676;26.348;2022-09-12T04:26:13;1.17;;;1.00;;
19525;SDS011;9907;42.676;26.348;2022-09-12T04:28:41;1.40;;;1.30;;
19525;SDS011;9907;42.676;26.348;2022-09-12T04:31:12;1.13;;;1.03;;
19525;SDS011;9907;42.676;26.348;2022-09-12T04:33:42;1.23;;;0.97;;
19525;SDS011;9907;42.676;26.348;2022-09-12T04:36:10;1.70;;;1.10;;
19525;SDS011;9907;42.676;26.348;2022-09-12T04:38:40;2.43;;;1.53;;
19525;SDS011;9907;42.676;26.348;2022-09-12T04:41:14;2.37;;;1.30;;
19525;SDS011;9907;42.676;26.348;2022-09-12T04:43:43;2.57;;;1.33;;
19525;SDS011;9907;42.676;26.348;2022-09-12T04:46:10;3.20;;;1.30;;
19525;SDS011;9907;42.676;26.348;2022-09-12T04:48:37;1.70;;;1.00;;
19525;SDS011;9907;42.676;26.348;2022-09-12T04:53:33;1.13;;;1.00;;
19525;SDS011;9907;42.676;26.348;2022-09-12T04:56:05;1.47;;;1.10;;
19525;SDS011;9907;42.676;26.348;2022-09-12T04:58:32;3.13;;;1.10;;
19525;SDS011;9907;42.676;26.348;2022-09-12T05:03:41;2.90;;;1.00;;
19525;SDS011;9907;42.676;26.348;2022-09-12T05:06:09;1.00;;;1.00;;
19525;SDS011;9907;42.676;26.348;2022-09-12T05:08:55;0.90;;;0.90;;
19525;SDS011;9907;42.676;26.348;2022-09-12T05:11:25;1.10;;;1.00;;
19525;SDS011;9907;42.676;26.348;2022-09-12T05:13:52;1.30;;;1.30;;
19525;SDS011;9907;42.676;26.348;2022-09-12T05:16:18;2.10;;;1.00;;
19525;SDS011;9907;42.676;26.348;2022-09-12T05:18:44;4.00;;;1.30;;
19525;SDS011;9907;42.676;26.348;2022-09-12T05:21:12;0.83;;;0.83;;
19525;SDS011;9907;42.676;26.348;2022-09-12T05:23:39;5.30;;;1.10;;
19525;SDS011;9907;42.676;26.348;2022-09-12T05:26:05;1.30;;;1.20;;
19525;SDS011;9907;42.676;26.348;2022-09-12T05:28:33;0.90;;;0.90;;
19525;SDS011;9907;42.676;26.348;2022-09-12T05:31:07;2.43;;;1.00;;
19525;SDS011;9907;42.676;26.348;2022-09-12T05:33:36;1.13;;;1.00;;
19525;SDS011;9907;42.676;26.348;2022-09-12T05:36:04;0.80;;;0.80;;
19525;SDS011;9907;42.676;26.348;2022-09-12T05:38:33;1.83;;;1.20;;
19525;SDS011;9907;42.676;26.348;2022-09-12T05:41:06;2.43;;;0.93;;
19525;SDS011;9907;42.676;26.348;2022-09-12T05:43:34;1.10;;;1.00;;
19525;SDS011;9907;42.676;26.348;2022-09-12T05:46:02;1.93;;;1.00;;
19525;SDS011;9907;42.676;26.348;2022-09-12T05:48:29;1.30;;;1.20;;
19525;SDS011;9907;42.676;26.348;2022-09-12T05:51:02;2.40;;;1.27;;
19525;SDS011;9907;42.676;26.348;2022-09-12T05:53:30;1.30;;;0.80;;
19525;SDS011;9907;42.676;26.348;2022-09-12T05:56:09;2.13;;;1.70;;
19525;SDS011;9907;42.676;26.348;2022-09-12T05:58:38;1.20;;;1.10;;
19525;SDS011;9907;42.676;26.348;2022-09-12T06:01:06;3.53;;;1.17;;
19525;SDS011;9907;42.676;26.348;2022-09-12T06:03:35;0.93;;;0.83;;
19525;SDS011;9907;42.676;26.348;2022-09-12T06:06:04;0.80;;;0.80;;
19525;SDS011;9907;42.676;26.348;2022-09-12T06:08:31;1.57;;;0.90;;
19525;SDS011;9907;42.676;26.348;2022-09-12T06:10:59;1.77;;;1.07;;
19525;SDS011;9907;42.676;26.348;2022-09-12T06:13:26;1.57;;;1.07;;
19525;SDS011;9907;42.676;26.348;2022-09-12T06:15:52;1.30;;;1.00;;
19525;SDS011;9907;42.676;26.348;2022-09-12T06:18:18;1.00;;;0.77;;
19525;SDS011;9907;42.676;26.348;2022-09-12T06:20:44;4.70;;;0.97;;
19525;SDS011;9907;42.676;26.348;2022-09-12T06:23:10;0.80;;;0.70;;
19525;SDS011;9907;42.676;26.348;2022-09-12T06:25:36;0.63;;;0.63;;
19525;SDS011;9907;42.676;26.348;2022-09-12T06:28:02;1.10;;;1.00;;
19525;SDS011;9907;42.676;26.348;2022-09-12T06:30:28;1.43;;;1.00;;
19525;SDS011;9907;42.676;26.348;2022-09-12T06:32:54;0.83;;;0.80;;
19525;SDS011;9907;42.676;26.348;2022-09-12T06:35:21;1.30;;;1.10;;
19525;SDS011;9907;42.676;26.348;2022-09-12T06:37:47;1.77;;;1.53;;
19525;SDS011;9907;42.676;26.348;2022-09-12T06:40:13;1.77;;;1.13;;
19525;SDS011;9907;42.676;26.348;2022-09-12T06:42:38;1.07;;;0.83;;
19525;SDS011;9907;42.676;26.348;2022-09-12T06:45:04;1.50;;;1.00;;
19525;SDS011;9907;42.676;26.348;2022-09-12T06:47:29;5.17;;;2.37;;
19525;SDS011;9907;42.676;26.348;2022-09-12T06:49:55;4.50;;;2.37;;
19525;SDS011;9907;42.676;26.348;2022-09-12T06:52:20;3.13;;;2.27;;
19525;SDS011;9907;42.676;26.348;2022-09-12T06:54:46;2.80;;;1.33;;
19525;SDS011;9907;42.676;26.348;2022-09-12T06:57:11;2.47;;;0.87;;
19525;SDS011;9907;42.676;26.348;2022-09-12T06:59:37;1.30;;;0.90;;
19525;SDS011;9907;42.676;26.348;2022-09-12T07:02:02;0.90;;;0.80;;
19525;SDS011;9907;42.676;26.348;2022-09-12T07:04:28;3.17;;;1.57;;
19525;SDS011;9907;42.676;26.348;2022-09-12T07:06:53;2.93;;;1.10;;
19525;SDS011;9907;42.676;26.348;2022-09-12T07:09:19;1.30;;;1.20;;
19525;SDS011;9907;42.676;26.348;2022-09-12T07:11:44;2.93;;;2.57;;
19525;SDS011;9907;42.676;26.348;2022-09-12T07:14:11;1.23;;;0.87;;
19525;SDS011;9907;42.676;26.348;2022-09-12T07:16:38;0.60;;;0.60;;
19525;SDS011;9907;42.676;26.348;2022-09-12T07:19:04;2.00;;;0.70;;
19525;SDS011;9907;42.676;26.348;2022-09-12T07:21:31;0.73;;;0.43;;
19525;SDS011;9907;42.676;26.348;2022-09-12T07:23:57;0.50;;;0.50;;
19525;SDS011;9907;42.676;26.348;2022-09-12T07:26:23;0.93;;;0.87;;
19525;SDS011;9907;42.676;26.348;2022-09-12T07:28:50;1.17;;;0.70;;
19525;SDS011;9907;42.676;26.348;2022-09-12T07:31:23;0.60;;;0.60;;
19525;SDS011;9907;42.676;26.348;2022-09-12T07:33:50;1.00;;;0.80;;
19525;SDS011;9907;42.676;26.348;2022-09-12T07:36:16;2.43;;;1.10;;
19525;SDS011;9907;42.676;26.348;2022-09-12T07:38:43;4.00;;;2.43;;
19525;SDS011;9907;42.676;26.348;2022-09-12T07:41:16;3.00;;;1.73;;
19525;SDS011;9907;42.676;26.348;2022-09-12T07:43:43;2.60;;;1.53;;
19525;SDS011;9907;42.676;26.348;2022-09-12T07:46:09;4.63;;;1.60;;
19525;SDS011;9907;42.676;26.348;2022-09-12T07:48:35;1.03;;;0.80;;
19525;SDS011;9907;42.676;26.348;2022-09-12T07:51:06;3.47;;;1.30;;
19525;SDS011;9907;42.676;26.348;2022-09-12T07:53:34;1.03;;;0.70;;
19525;SDS011;9907;42.676;26.348;2022-09-12T07:56:03;2.93;;;1.07;;
19525;SDS011;9907;42.676;26.348;2022-09-12T07:58:30;1.57;;;0.80;;
19525;SDS011;9907;42.676;26.348;2022-09-12T08:01:03;3.23;;;0.83;;
19525;SDS011;9907;42.676;26.348;2022-09-12T08:03:29;2.83;;;1.27;;
19525;SDS011;9907;42.676;26.348;2022-09-12T08:06:01;0.97;;;0.70;;
19525;SDS011;9907;42.676;26.348;2022-09-12T08:08:38;1.20;;;0.90;;
19525;SDS011;9907;42.676;26.348;2022-09-12T08:11:05;0.97;;;0.73;;
19525;SDS011;9907;42.676;26.348;2022-09-12T08:13:32;1.77;;;1.40;;
19525;SDS011;9907;42.676;26.348;2022-09-12T08:16:00;0.60;;;0.60;;
19525;SDS011;9907;42.676;26.348;2022-09-12T08:18:29;0.80;;;0.67;;
19525;SDS011;9907;42.676;26.348;2022-09-12T08:20:57;0.70;;;0.60;;
19525;SDS011;9907;42.676;26.348;2022-09-12T08:23:23;1.03;;;0.70;;
19525;SDS011;9907;42.676;26.348;2022-09-12T08:25:49;1.17;;;0.83;;
19525;SDS011;9907;42.676;26.348;2022-09-12T08:28:15;0.80;;;0.80;;
19525;SDS011;9907;42.676;26.348;2022-09-12T08:30:40;1.20;;;0.93;;
19525;SDS011;9907;42.676;26.348;2022-09-12T08:33:06;0.73;;;0.60;;
19525;SDS011;9907;42.676;26.348;2022-09-12T08:35:32;0.87;;;0.60;;
19525;SDS011;9907;42.676;26.348;2022-09-12T08:37:57;0.80;;;0.40;;
19525;SDS011;9907;42.676;26.348;2022-09-12T08:40:23;0.50;;;0.50;;
19525;SDS011;9907;42.676;26.348;2022-09-12T08:43:02;3.70;;;1.30;;
19525;SDS011;9907;42.676;26.348;2022-09-12T08:45:53;3.63;;;1.40;;
19525;SDS011;9907;42.676;26.348;2022-09-12T08:48:34;0.50;;;0.50;;
19525;SDS011;9907;42.676;26.348;2022-09-12T08:51:03;1.60;;;1.50;;
19525;SDS011;9907;42.676;26.348;2022-09-12T08:53:29;2.10;;;1.90;;
19525;SDS011;9907;42.676;26.348;2022-09-12T08:55:59;5.00;;;2.57;;
19525;SDS011;9907;42.676;26.348;2022-09-12T08:58:28;1.03;;;0.97;;
19525;SDS011;9907;42.676;26.348;2022-09-12T09:09:03;1.23;;;1.10;;
19525;SDS011;9907;42.676;26.348;2022-09-12T09:11:52;1.30;;;0.90;;
19525;SDS011;9907;42.676;26.348;2022-09-12T09:17:51;2.13;;;0.60;;
19525;SDS011;9907;42.676;26.348;2022-09-12T09:23:15;0.73;;;0.70;;
19525;SDS011;9907;42.676;26.348;2022-09-12T09:25:58;1.00;;;1.00;;
19525;SDS011;9907;42.676;26.348;2022-09-12T09:31:03;0.60;;;0.60;;
19525;SDS011;9907;42.676;26.348;2022-09-12T09:33:33;1.33;;;0.70;;
19525;SDS011;9907;42.676;26.348;2022-09-12T09:39:11;0.77;;;0.60;;
19525;SDS011;9907;42.676;26.348;2022-09-12T09:44:45;3.13;;;1.43;;
19525;SDS011;9907;42.676;26.348;2022-09-12T09:47:12;0.63;;;0.63;;
19525;SDS011;9907;42.676;26.348;2022-09-12T09:49:38;0.80;;;0.70;;
19525;SDS011;9907;42.676;26.348;2022-09-12T09:52:06;0.57;;;0.57;;
19525;SDS011;9907;42.676;26.348;2022-09-12T09:54:37;0.70;;;0.70;;
19525;SDS011;9907;42.676;26.348;2022-09-12T10:05:22;5.33;;;4.77;;
19525;SDS011;9907;42.676;26.348;2022-09-12T10:07:48;2.67;;;1.30;;
19525;SDS011;9907;42.676;26.348;2022-09-12T10:10:16;1.13;;;0.80;;
19525;SDS011;9907;42.676;26.348;2022-09-12T10:12:42;1.73;;;0.50;;
19525;SDS011;9907;42.676;26.348;2022-09-12T10:15:15;2.33;;;0.80;;
19525;SDS011;9907;42.676;26.348;2022-09-12T10:17:42;0.53;;;0.50;;
19525;SDS011;9907;42.676;26.348;2022-09-12T10:20:35;0.70;;;0.60;;
19525;SDS011;9907;42.676;26.348;2022-09-12T10:26:08;0.33;;;0.33;;
19525;SDS011;9907;42.676;26.348;2022-09-12T10:31:04;0.90;;;0.70;;
19525;SDS011;9907;42.676;26.348;2022-09-12T10:33:34;0.67;;;0.50;;
19525;SDS011;9907;42.676;26.348;2022-09-12T10:36:20;0.90;;;0.50;;
19525;SDS011;9907;42.676;26.348;2022-09-12T10:38:48;1.60;;;1.23;;
19525;SDS011;9907;42.676;26.348;2022-09-12T10:41:16;0.70;;;0.70;;
19525;SDS011;9907;42.676;26.348;2022-09-12T10:43:42;1.90;;;0.80;;
19525;SDS011;9907;42.676;26.348;2022-09-12T10:48:41;2.80;;;1.10;;
19525;SDS011;9907;42.676;26.348;2022-09-12T10:53:48;2.13;;;1.60;;
19525;SDS011;9907;42.676;26.348;2022-09-12T10:56:19;4.27;;;1.83;;
19525;SDS011;9907;42.676;26.348;2022-09-12T11:09:57;8.23;;;3.60;;
19525;SDS011;9907;42.676;26.348;2022-09-12T11:12:42;3.17;;;1.20;;
19525;SDS011;9907;42.676;26.348;2022-09-12T11:18:02;8.80;;;5.13;;
19525;SDS011;9907;42.676;26.348;2022-09-12T11:20:52;32.80;;;12.20;;
19525;SDS011;9907;42.676;26.348;2022-09-12T11:40:40;1.13;;;1.13;;
19525;SDS011;9907;42.676;26.348;2022-09-12T11:46:13;2.70;;;1.00;;
19525;SDS011;9907;42.676;26.348;2022-09-12T11:48:57;0.70;;;0.70;;
19525;SDS011;9907;42.676;26.348;2022-09-12T11:51:55;1.00;;;0.90;;
19525;SDS011;9907;42.676;26.348;2022-09-12T11:54:29;0.93;;;0.60;;
19525;SDS011;9907;42.676;26.348;2022-09-12T11:59:41;0.87;;;0.87;;
19525;SDS011;9907;42.676;26.348;2022-09-12T12:02:18;1.40;;;0.83;;
19525;SDS011;9907;42.676;26.348;2022-09-12T12:05:03;2.57;;;2.37;;
19525;SDS011;9907;42.676;26.348;2022-09-12T12:07:41;0.73;;;0.70;;
19525;SDS011;9907;42.676;26.348;2022-09-12T12:10:23;1.20;;;1.00;;
19525;SDS011;9907;42.676;26.348;2022-09-12T12:13:04;1.13;;;1.03;;
19525;SDS011;9907;42.676;26.348;2022-09-12T12:15:35;1.27;;;0.90;;
19525;SDS011;9907;42.676;26.348;2022-09-12T12:18:06;0.90;;;0.90;;
19525;SDS011;9907;42.676;26.348;2022-09-12T12:20:40;1.37;;;0.63;;
19525;SDS011;9907;42.676;26.348;2022-09-12T12:23:06;2.03;;;0.90;;
19525;SDS011;9907;42.676;26.348;2022-09-12T12:25:51;1.40;;;0.80;;
19525;SDS011;9907;42.676;26.348;2022-09-12T12:31:04;1.07;;;1.00;;
19525;SDS011;9907;42.676;26.348;2022-09-12T12:38:33;2.03;;;1.13;;
19525;SDS011;9907;42.676;26.348;2022-09-12T12:43:41;2.00;;;1.00;;
19525;SDS011;9907;42.676;26.348;2022-09-12T12:46:11;2.77;;;0.90;;
19525;SDS011;9907;42.676;26.348;2022-09-12T12:54:26;3.23;;;0.93;;
19525;SDS011;9907;42.676;26.348;2022-09-12T12:57:05;0.70;;;0.70;;
19525;SDS011;9907;42.676;26.348;2022-09-12T12:59:49;0.70;;;0.70;;
19525;SDS011;9907;42.676;26.348;2022-09-12T13:02:40;1.50;;;1.40;;
19525;SDS011;9907;42.676;26.348;2022-09-12T13:05:15;1.03;;;1.03;;
19525;SDS011;9907;42.676;26.348;2022-09-12T13:07:43;1.07;;;0.80;;
19525;SDS011;9907;42.676;26.348;2022-09-12T13:10:22;0.80;;;0.70;;
19525;SDS011;9907;42.676;26.348;2022-09-12T13:12:51;0.80;;;0.80;;
19525;SDS011;9907;42.676;26.348;2022-09-12T13:18:02;1.10;;;1.00;;
19525;SDS011;9907;42.676;26.348;2022-09-12T13:20:31;1.00;;;0.90;;
19525;SDS011;9907;42.676;26.348;2022-09-12T13:23:02;5.20;;;0.80;;
19525;SDS011;9907;42.676;26.348;2022-09-12T13:27:58;0.80;;;0.80;;
19525;SDS011;9907;42.676;26.348;2022-09-12T13:30:31;0.90;;;0.90;;
19525;SDS011;9907;42.676;26.348;2022-09-12T13:33:05;0.70;;;0.70;;
19525;SDS011;9907;42.676;26.348;2022-09-12T13:35:48;1.10;;;1.00;;
19525;SDS011;9907;42.676;26.348;2022-09-12T13:41:18;1.00;;;0.97;;
19525;SDS011;9907;42.676;26.348;2022-09-12T13:44:06;2.83;;;1.63;;
19525;SDS011;9907;42.676;26.348;2022-09-12T13:46:34;2.30;;;1.90;;
19525;SDS011;9907;42.676;26.348;2022-09-12T13:49:00;2.07;;;1.60;;
19525;SDS011;9907;42.676;26.348;2022-09-12T13:51:33;2.77;;;2.10;;
19525;SDS011;9907;42.676;26.348;2022-09-12T13:54:01;6.73;;;3.43;;
19525;SDS011;9907;42.676;26.348;2022-09-12T13:56:29;16.17;;;7.73;;
19525;SDS011;9907;42.676;26.348;2022-09-12T13:58:55;9.20;;;4.57;;
19525;SDS011;9907;42.676;26.348;2022-09-12T14:01:34;6.83;;;3.73;;
19525;SDS011;9907;42.676;26.348;2022-09-12T14:04:18;6.67;;;4.73;;
19525;SDS011;9907;42.676;26.348;2022-09-12T14:07:12;4.20;;;2.53;;
19525;SDS011;9907;42.676;26.348;2022-09-12T14:09:42;2.87;;;2.63;;
19525;SDS011;9907;42.676;26.348;2022-09-12T14:12:24;2.00;;;1.90;;
19525;SDS011;9907;42.676;26.348;2022-09-12T14:14:54;4.00;;;2.00;;
19525;SDS011;9907;42.676;26.348;2022-09-12T14:17:25;1.50;;;1.40;;
19525;SDS011;9907;42.676;26.348;2022-09-12T14:19:54;4.47;;;2.13;;
19525;SDS011;9907;42.676;26.348;2022-09-12T14:22:23;2.77;;;1.60;;
19525;SDS011;9907;42.676;26.348;2022-09-12T14:24:50;2.43;;;1.73;;
19525;SDS011;9907;42.676;26.348;2022-09-12T14:27:18;2.40;;;2.03;;
19525;SDS011;9907;42.676;26.348;2022-09-12T14:29:48;4.37;;;2.33;;
19525;SDS011;9907;42.676;26.348;2022-09-12T14:32:23;24.37;;;18.80;;
19525;SDS011;9907;42.676;26.348;2022-09-12T14:35:05;4.47;;;3.83;;
19525;SDS011;9907;42.676;26.348;2022-09-12T14:37:51;3.03;;;2.57;;
19525;SDS011;9907;42.676;26.348;2022-09-12T14:40:18;4.07;;;1.90;;
19525;SDS011;9907;42.676;26.348;2022-09-12T14:42:46;2.07;;;1.90;;
19525;SDS011;9907;42.676;26.348;2022-09-12T14:45:24;3.50;;;1.97;;
19525;SDS011;9907;42.676;26.348;2022-09-12T14:47:55;2.10;;;1.80;;
19525;SDS011;9907;42.676;26.348;2022-09-12T14:50:23;2.80;;;1.90;;
19525;SDS011;9907;42.676;26.348;2022-09-12T14:53:06;1.80;;;1.70;;
19525;SDS011;9907;42.676;26.348;2022-09-12T14:55:43;2.57;;;2.33;;
19525;SDS011;9907;42.676;26.348;2022-09-12T15:00:56;2.20;;;2.10;;
19525;SDS011;9907;42.676;26.348;2022-09-12T15:08:47;6.30;;;4.37;;
19525;SDS011;9907;42.676;26.348;2022-09-12T15:11:13;10.13;;;5.57;;
19525;SDS011;9907;42.676;26.348;2022-09-12T15:13:39;12.43;;;7.77;;
19525;SDS011;9907;42.676;26.348;2022-09-12T15:16:06;13.63;;;8.80;;
19525;SDS011;9907;42.676;26.348;2022-09-12T15:18:34;7.37;;;5.00;;
19525;SDS011;9907;42.676;26.348;2022-09-12T15:21:01;6.77;;;2.63;;
19525;SDS011;9907;42.676;26.348;2022-09-12T15:26:00;2.67;;;2.20;;
19525;SDS011;9907;42.676;26.348;2022-09-12T15:28:28;1.90;;;1.80;;
19525;SDS011;9907;42.676;26.348;2022-09-12T15:30:55;2.50;;;2.30;;
19525;SDS011;9907;42.676;26.348;2022-09-12T15:33:22;3.10;;;2.20;;
19525;SDS011;9907;42.676;26.348;2022-09-12T15:35:49;2.03;;;1.93;;
19525;SDS011;9907;42.676;26.348;2022-09-12T15:38:16;5.00;;;2.47;;
19525;SDS011;9907;42.676;26.348;2022-09-12T15:40:42;2.60;;;2.40;;
19525;SDS011;9907;42.676;26.348;2022-09-12T15:43:11;3.03;;;2.10;;
19525;SDS011;9907;42.676;26.348;2022-09-12T15:45:38;5.10;;;2.33;;
19525;SDS011;9907;42.676;26.348;2022-09-12T15:48:06;2.40;;;2.20;;
19525;SDS011;9907;42.676;26.348;2022-09-12T15:50:32;4.20;;;2.57;;
19525;SDS011;9907;42.676;26.348;2022-09-12T15:52:58;5.23;;;4.00;;
19525;SDS011;9907;42.676;26.348;2022-09-12T15:55:25;2.97;;;2.77;;
19525;SDS011;9907;42.676;26.348;2022-09-12T15:57:53;8.83;;;4.37;;
19525;SDS011;9907;42.676;26.348;2022-09-12T16:00:19;4.50;;;3.67;;
19525;SDS011;9907;42.676;26.348;2022-09-12T16:02:45;7.50;;;4.90;;
19525;SDS011;9907;42.676;26.348;2022-09-12T16:05:14;4.20;;;3.80;;
19525;SDS011;9907;42.676;26.348;2022-09-12T16:07:42;4.67;;;3.50;;
19525;SDS011;9907;42.676;26.348;2022-09-12T16:10:09;6.07;;;3.40;;
19525;SDS011;9907;42.676;26.348;2022-09-12T16:12:40;6.97;;;4.63;;
19525;SDS011;9907;42.676;26.348;2022-09-12T16:15:06;19.53;;;10.70;;
19525;SDS011;9907;42.676;26.348;2022-09-12T16:17:34;6.13;;;3.10;;
19525;SDS011;9907;42.676;26.348;2022-09-12T16:19:59;4.13;;;3.00;;
19525;SDS011;9907;42.676;26.348;2022-09-12T16:22:25;5.67;;;2.93;;
19525;SDS011;9907;42.676;26.348;2022-09-12T16:24:50;3.50;;;2.97;;
19525;SDS011;9907;42.676;26.348;2022-09-12T16:27:15;5.10;;;2.80;;
19525;SDS011;9907;42.676;26.348;2022-09-12T16:29:41;5.30;;;3.60;;
19525;SDS011;9907;42.676;26.348;2022-09-12T16:32:07;11.70;;;7.27;;
19525;SDS011;9907;42.676;26.348;2022-09-12T16:34:32;9.50;;;4.13;;
19525;SDS011;9907;42.676;26.348;2022-09-12T16:36:58;4.90;;;3.90;;
19525;SDS011;9907;42.676;26.348;2022-09-12T16:39:23;9.73;;;7.77;;
19525;SDS011;9907;42.676;26.348;2022-09-12T16:41:49;4.53;;;3.90;;
19525;SDS011;9907;42.676;26.348;2022-09-12T16:44:14;8.47;;;5.00;;
19525;SDS011;9907;42.676;26.348;2022-09-12T16:46:39;13.50;;;8.63;;
19525;SDS011;9907;42.676;26.348;2022-09-12T16:49:05;8.13;;;5.43;;
19525;SDS011;9907;42.676;26.348;2022-09-12T16:51:32;34.17;;;16.00;;
19525;SDS011;9907;42.676;26.348;2022-09-12T16:54:01;22.27;;;12.50;;
19525;SDS011;9907;42.676;26.348;2022-09-12T16:56:28;19.07;;;9.93;;
19525;SDS011;9907;42.676;26.348;2022-09-12T16:58:53;15.40;;;9.43;;
19525;SDS011;9907;42.676;26.348;2022-09-12T17:01:20;30.73;;;15.17;;
19525;SDS011;9907;42.676;26.348;2022-09-12T17:03:51;21.17;;;12.23;;
19525;SDS011;9907;42.676;26.348;2022-09-12T17:06:18;16.10;;;10.20;;
19525;SDS011;9907;42.676;26.348;2022-09-12T17:08:48;18.80;;;9.90;;
19525;SDS011;9907;42.676;26.348;2022-09-12T17:11:19;8.37;;;4.67;;
19525;SDS011;9907;42.676;26.348;2022-09-12T17:13:49;5.97;;;4.57;;
19525;SDS011;9907;42.676;26.348;2022-09-12T17:16:17;5.27;;;3.87;;
19525;SDS011;9907;42.676;26.348;2022-09-12T17:18:43;4.77;;;4.23;;
19525;SDS011;9907;42.676;26.348;2022-09-12T17:21:09;4.10;;;3.10;;
19525;SDS011;9907;42.676;26.348;2022-09-12T17:23:36;4.97;;;4.47;;
19525;SDS011;9907;42.676;26.348;2022-09-12T17:26:02;3.80;;;3.33;;
19525;SDS011;9907;42.676;26.348;2022-09-12T17:28:28;3.63;;;3.30;;
19525;SDS011;9907;42.676;26.348;2022-09-12T17:30:54;7.03;;;3.90;;
19525;SDS011;9907;42.676;26.348;2022-09-12T17:33:21;4.03;;;3.60;;
19525;SDS011;9907;42.676;26.348;2022-09-12T17:35:47;6.57;;;4.60;;
19525;SDS011;9907;42.676;26.348;2022-09-12T17:38:12;5.30;;;3.47;;
19525;SDS011;9907;42.676;26.348;2022-09-12T17:40:38;7.27;;;4.57;;
19525;SDS011;9907;42.676;26.348;2022-09-12T17:43:03;4.30;;;3.67;;
19525;SDS011;9907;42.676;26.348;2022-09-12T17:45:29;4.90;;;3.80;;
19525;SDS011;9907;42.676;26.348;2022-09-12T17:47:54;5.57;;;3.10;;
19525;SDS011;9907;42.676;26.348;2022-09-12T17:50:20;11.30;;;6.17;;
19525;SDS011;9907;42.676;26.348;2022-09-12T17:52:45;17.17;;;9.17;;